createdAt,value
2022-08-26T00:02:56.072Z,100307.38
2022-08-26T00:07:59.263Z,100310.81
2022-08-26T00:13:05.660Z,100314.44
2022-08-26T00:18:16.849Z,100299.28
2022-08-26T00:23:28.962Z,100319.38
2022-08-26T00:28:43.307Z,100299.78
2022-08-26T00:33:47.874Z,100299.69
2022-08-26T00:38:53.674Z,100297.34
2022-08-26T00:44:00.633Z,100303.88
2022-08-26T00:49:13.416Z,100306.22
2022-08-26T00:54:27.047Z,100294.44
2022-08-26T00:59:34.672Z,100303.63
2022-08-26T01:04:39.830Z,100296.94
2022-08-26T01:09:44.517Z,100286.13
2022-08-26T01:14:50.524Z,100290.53
2022-08-26T01:20:02.148Z,100286.44
2022-08-26T01:25:22.853Z,100279.38
2022-08-26T01:30:26.667Z,100288.09
2022-08-26T01:35:32.575Z,100294.03
2022-08-26T01:41:01.313Z,100293.34
2022-08-26T01:46:20.152Z,100307.41
2022-08-26T01:51:28.459Z,100293.97
2022-08-26T01:56:55.830Z,100284.38
2022-08-26T02:02:18.251Z,100292.63
2022-08-26T02:07:28.451Z,100296.72
2022-08-26T02:12:41.216Z,100298.41
2022-08-26T02:17:47.696Z,100307.22
2022-08-26T02:22:50.607Z,100292.91
2022-08-26T02:28:13.108Z,100303.53
2022-08-26T02:33:16.995Z,100301.56
2022-08-26T02:38:23.234Z,100300.69
2022-08-26T02:43:36.772Z,100289.47
2022-08-26T02:48:49.760Z,100293.06
2022-08-26T02:53:53.094Z,100284.16
2022-08-26T02:59:24.392Z,100285.88
2022-08-26T03:04:34.306Z,100274.13
2022-08-26T03:09:37.076Z,100271.59
2022-08-26T03:14:47.515Z,100272.97
2022-08-26T03:19:57.251Z,100268.97
2022-08-26T03:30:46.677Z,100261.31
2022-08-26T03:36:07.421Z,100248.34
2022-08-26T03:41:11.149Z,100266.41
2022-08-26T03:46:16.482Z,100254.94
2022-08-26T03:51:20.563Z,100245.97
2022-08-26T03:56:23.793Z,100269.16
2022-08-26T04:01:31.189Z,100257.31
2022-08-26T04:06:39.066Z,100256.38
2022-08-26T04:11:43.550Z,100263.03
2022-08-26T04:16:49.039Z,100240.78
2022-08-26T04:21:53.891Z,100255.09
2022-08-26T04:26:58.053Z,100261.72
2022-08-26T04:32:03.053Z,100269.25
2022-08-26T04:37:06.410Z,100257.16
2022-08-26T04:42:09.879Z,100265.16
2022-08-26T04:47:13.892Z,100266.69
2022-08-26T04:52:16.808Z,100273.72
2022-08-26T04:57:19.567Z,100271.28
2022-08-26T05:02:26.302Z,100273.00
2022-08-26T05:07:29.685Z,100269.88
2022-08-26T05:12:35.138Z,100270.16
2022-08-26T05:17:39.157Z,100264.59
2022-08-26T05:22:42.741Z,100282.06
2022-08-26T05:27:45.600Z,100275.41
2022-08-26T05:32:53.604Z,100279.28
2022-08-26T05:37:57.916Z,100276.84
2022-08-26T05:43:00.724Z,100280.41
2022-08-26T05:48:08.885Z,100276.84
2022-08-26T05:53:15.074Z,100279.81
2022-08-26T05:58:24.170Z,100279.97
2022-08-26T06:03:28.791Z,100271.94
2022-08-26T06:08:33.929Z,100261.72
2022-08-26T06:13:38.928Z,100270.47
2022-08-26T06:18:45.069Z,100278.34
2022-08-26T06:24:08.494Z,100283.28
2022-08-26T06:29:16.408Z,100274.69
2022-08-26T06:34:30.680Z,100265.66
2022-08-26T06:39:33.482Z,100287.34
2022-08-26T06:44:35.998Z,100291.91
2022-08-26T06:49:40.154Z,100289.66
2022-08-26T06:54:43.190Z,100276.59
2022-08-26T06:59:46.888Z,100292.34
2022-08-26T07:04:51.073Z,100271.13
2022-08-26T07:09:54.427Z,100280.66
2022-08-26T07:14:57.254Z,100287.97
2022-08-26T07:20:03.206Z,100273.97
2022-08-26T07:25:09.661Z,100274.25
2022-08-26T07:30:14.914Z,100275.94
2022-08-26T07:35:18.829Z,100274.22
2022-08-26T07:40:22.166Z,100285.13
2022-08-26T07:45:25.117Z,100279.44
2022-08-26T07:50:47.085Z,100279.31
2022-08-26T07:55:52.496Z,100277.75
2022-08-26T08:00:55.098Z,100278.03
2022-08-26T08:05:59.363Z,100275.47
2022-08-26T08:11:02.746Z,100262.94
2022-08-26T08:16:05.957Z,100265.31
2022-08-26T08:21:22.074Z,100258.66
2022-08-26T08:26:28.037Z,100262.53
2022-08-26T08:31:55.978Z,100255.94
2022-08-26T08:36:57.114Z,100247.38
2022-08-26T08:42:28.039Z,100250.56
2022-08-26T08:47:35.629Z,100241.31
2022-08-26T08:52:42.197Z,100245.84
2022-08-26T08:58:02.145Z,100235.78
2022-08-26T09:03:18.712Z,100230.63
2022-08-26T09:08:28.511Z,100231.00
2022-08-26T09:13:31.788Z,100230.59
2022-08-26T09:18:48.050Z,100224.97
2022-08-26T09:23:54.045Z,100225.00
2022-08-26T09:28:59.739Z,100214.03
2022-08-26T09:34:17.810Z,100201.38
2022-08-26T09:39:31.496Z,100207.56
2022-08-26T09:44:35.777Z,100180.41
2022-08-26T09:49:39.981Z,100176.09
2022-08-26T09:54:58.265Z,100165.66
2022-08-26T10:00:01.729Z,100160.38
2022-08-26T10:05:10.191Z,100147.03
2022-08-26T10:10:19.005Z,100144.56
2022-08-26T10:15:23.141Z,100149.09
2022-08-26T10:20:32.018Z,100143.06
2022-08-26T10:25:43.251Z,100137.94
2022-08-26T10:30:50.591Z,100125.84
2022-08-26T10:35:56.836Z,100119.88
2022-08-26T10:41:09.824Z,100110.91
2022-08-26T10:46:18.497Z,100097.34
2022-08-26T10:51:25.411Z,100091.75
2022-08-26T10:56:44.423Z,100078.03
2022-08-26T11:01:54.798Z,100064.25
2022-08-26T11:07:37.292Z,100064.50
2022-08-26T11:12:56.634Z,100050.06
2022-08-26T11:18:02.031Z,100048.47
2022-08-26T11:23:40.392Z,100048.09
2022-08-26T11:28:48.302Z,100030.75
2022-08-26T11:33:53.024Z,100021.66
2022-08-26T11:38:57.209Z,100022.81
2022-08-26T11:44:02.327Z,100005.66
2022-08-26T11:49:07.851Z,100005.09
2022-08-26T11:54:12.409Z,100008.50
2022-08-26T11:59:23.817Z,100004.06
2022-08-26T12:04:30.047Z,100006.91
2022-08-26T12:09:35.658Z,100006.06
2022-08-26T12:14:39.742Z,99994.59
2022-08-26T12:19:42.741Z,99993.13
2022-08-26T12:24:50.494Z,99985.91
2022-08-26T12:30:12.240Z,99987.09
2022-08-26T12:35:17.365Z,99979.66
2022-08-26T12:40:28.895Z,99975.63
2022-08-26T12:45:35.489Z,99969.88
2022-08-26T12:50:40.169Z,99960.91
2022-08-26T12:55:45.434Z,99968.63
2022-08-26T13:00:51.193Z,99975.69
2022-08-26T13:05:53.868Z,99968.19
2022-08-26T13:11:05.620Z,99980.06
2022-08-26T13:16:09.564Z,99972.59
2022-08-26T13:21:17.028Z,99997.44
2022-08-26T13:26:20.121Z,100000.94
2022-08-26T13:31:26.972Z,100006.00
2022-08-26T13:36:30.292Z,100003.69
2022-08-26T13:41:33.112Z,99988.69
2022-08-26T13:46:37.547Z,99982.28
2022-08-26T13:51:40.365Z,99988.31
2022-08-26T13:56:42.936Z,99999.84
2022-08-26T14:01:46.889Z,100011.41
2022-08-26T14:06:49.609Z,100032.91
2022-08-26T14:11:54.359Z,100050.84
2022-08-26T14:17:00.436Z,100048.13
2022-08-26T14:22:05.087Z,100048.53
2022-08-26T14:27:07.829Z,100051.50
2022-08-26T14:32:21.020Z,100038.63
2022-08-26T14:37:33.571Z,100001.88
2022-08-26T14:42:37.202Z,99996.16
2022-08-26T14:47:50.987Z,99963.25
2022-08-26T14:53:11.290Z,99953.19
2022-08-26T14:58:13.864Z,99971.19
2022-08-26T15:08:23.034Z,99967.59
2022-08-26T15:13:30.935Z,99985.09
2022-08-26T15:18:35.173Z,99991.66
2022-08-26T15:23:39.323Z,99994.91
2022-08-26T15:28:42.515Z,100009.19
2022-08-26T15:33:47.124Z,99980.91
2022-08-26T15:38:49.659Z,99993.09
2022-08-26T15:43:53.014Z,99981.88
2022-08-26T15:48:56.839Z,99989.47
2022-08-26T15:54:00.020Z,100002.00
2022-08-26T15:59:03.661Z,100014.53
2022-08-26T16:04:09.039Z,100023.59
2022-08-26T16:09:15.249Z,100012.09
2022-08-26T16:14:18.102Z,100025.38
2022-08-26T16:19:22.565Z,100028.59
2022-08-26T16:24:30.251Z,100028.63
2022-08-26T16:29:33.081Z,100015.34
2022-08-26T16:34:37.186Z,100008.41
2022-08-26T16:39:49.714Z,100013.69
2022-08-26T16:44:52.450Z,100005.75
2022-08-26T16:49:56.559Z,100016.31
2022-08-26T16:54:59.620Z,100022.88
2022-08-26T17:00:05.863Z,100001.16
2022-08-26T17:05:11.731Z,100017.88
2022-08-26T17:10:14.595Z,100016.13
2022-08-26T17:15:18.267Z,100009.75
2022-08-26T17:20:23.309Z,100021.34
2022-08-26T17:25:29.085Z,100014.88
2022-08-26T17:30:31.885Z,100024.13
2022-08-26T17:35:36.152Z,100032.75
2022-08-26T17:40:38.706Z,100037.22
2022-08-26T17:45:41.829Z,100026.69
2022-08-26T17:50:49.692Z,100020.66
2022-08-26T17:55:53.036Z,100027.81
2022-08-26T18:00:56.856Z,100021.00
2022-08-26T18:06:00.674Z,100031.63
2022-08-26T18:11:03.586Z,100023.88
2022-08-26T18:16:07.600Z,100020.47
2022-08-26T18:21:15.642Z,100012.63
2022-08-26T18:26:19.800Z,100012.97
2022-08-26T18:31:22.424Z,100006.34
2022-08-26T18:36:28.471Z,100018.38
2022-08-26T18:41:34.286Z,100020.22
2022-08-26T18:46:37.022Z,100025.25
2022-08-26T18:51:41.896Z,100031.25
2022-08-26T18:56:44.608Z,100024.84
2022-08-26T19:01:50.519Z,100028.09
2022-08-26T19:06:54.976Z,100022.34
2022-08-26T19:11:57.544Z,100023.75
2022-08-26T19:17:01.453Z,100044.06
2022-08-26T19:22:05.592Z,100053.09
2022-08-26T19:27:14.572Z,100063.53
2022-08-26T19:32:17.994Z,100066.47
2022-08-26T19:37:21.931Z,100072.28
2022-08-26T19:42:24.395Z,100092.72
2022-08-26T19:47:28.058Z,100096.97
2022-08-26T19:52:31.967Z,100098.00
2022-08-26T19:57:34.682Z,100120.63
2022-08-26T20:02:37.254Z,100121.25
2022-08-26T20:07:41.877Z,100119.13
2022-08-26T20:12:44.359Z,100098.69
2022-08-26T20:17:46.915Z,100096.25
2022-08-26T20:22:53.274Z,100090.81
2022-08-26T20:27:55.730Z,100089.84
2022-08-26T20:32:58.229Z,100090.94
2022-08-26T20:38:02.020Z,100081.69
2022-08-26T20:43:05.997Z,100074.88
2022-08-26T20:48:08.572Z,100078.47
2022-08-26T20:53:13.088Z,100077.28
2022-08-26T20:58:15.839Z,100074.44
2022-08-26T21:03:18.318Z,100073.31
2022-08-26T21:08:22.168Z,100087.03
2022-08-26T21:13:24.532Z,100099.09
2022-08-26T21:18:27.094Z,100099.44
2022-08-26T21:23:30.925Z,100089.44
2022-08-26T21:28:34.881Z,100078.88
2022-08-26T21:33:39.321Z,100082.69
2022-08-26T21:38:43.441Z,100074.03
2022-08-26T21:43:46.486Z,100079.66
2022-08-26T21:48:51.175Z,100084.22
2022-08-26T21:53:55.487Z,100083.41
2022-08-26T21:58:58.955Z,100094.78
2022-08-26T22:04:03.762Z,100084.88
2022-08-26T22:09:07.620Z,100083.53
2022-08-26T22:14:10.490Z,100072.56
2022-08-26T22:19:13.448Z,100069.25
2022-08-26T22:24:23.136Z,100070.41
2022-08-26T22:29:27.386Z,100075.78
2022-08-26T22:34:29.895Z,100097.53
2022-08-26T22:39:34.157Z,100088.41
2022-08-26T22:44:37.581Z,100087.06
2022-08-26T22:49:40.120Z,100077.31
2022-08-26T22:54:43.972Z,100093.97
2022-08-26T22:59:46.767Z,100104.97
2022-08-26T23:04:49.984Z,100100.97
2022-08-26T23:09:53.805Z,100100.06
2022-08-26T23:14:56.204Z,100105.56
2022-08-26T23:19:59.103Z,100100.63
2022-08-26T23:30:14.663Z,100083.94
2022-08-26T23:35:21.440Z,100081.22
2022-08-26T23:40:28.346Z,100082.16
2022-08-26T23:45:31.793Z,100080.34
2022-08-26T23:50:52.480Z,100076.47
2022-08-26T23:55:56.493Z,100083.94
